Atwater, CA

8:31 PM PST on January 25, 2015 (GMT -0800)
Atwater High School Ag Dept. | Change Station
CLOSE
Current Station
Personal Weather Station
Location: Atwater, CA
Elevation: 167 ft
Nearby Weather Stations

Elev 167 ft 37.37 °N, 120.62 °W | Updated 4 seconds ago

Mostly Cloudy
Mostly Cloudy
41.0 °F
Feels Like 41 °F
N
0.0
Wind Variable Wind from SSE
Gusts 1.0 mph

Today
High -- | Low -- °F
--% Chance of Precip.
Yesterday
High -- | Low -- °F
Precip. -- in
7:10 AM 5:19 PM
Waxing Crescent, 39% visible
Pressure 30.08 in
Visibility 1.8 miles
Clouds Overcast 100 ft
Windchill 41 °F
Dew Point 40 °F
Humidity 97%
Rainfall 0.00 in
Snow Depth Not available.
UV 0 out of 12
Pollen 3.90 out of 12
Air Quality Not available.
Flu Activity Not available.
METAR KMER 260415Z AUTO 17003KT 1 3/4SM OVC001 03/03 A3008 RMK AO1

More Conditions Fewer Conditions

Pressure 30.08 in
Visibility 1.8 miles
Clouds Overcast 100 ft
Windchill 41 °F
Dew Point 40 °F
Humidity 97%
Rainfall 0.00 in
Snow Depth Not available.
UV 0 out of 12
Pollen 3.90 out of 12
Air Quality Not available.
Flu Activity Not available.
METAR KMER 260415Z AUTO 17003KT 1 3/4SM OVC001 03/03 A3008 RMK AO1

More Conditions Fewer Conditions

10-Day Weather Forecast

Almanac

Astronomy

Jan. 25, 2015 Rise Set
Actual Time
Civil Twilight
Nautical Twilight
Astronomical Twilight
Moon
Length of Visible Light
Length of Day
Tomorrow will be .
, % of the Moon is Illuminated

Today's Extremes

State Highs State Lows

Community

WunderPhotos

Upload Photos

1,790,138 photos uploaded!

WunderBlogs® & News

Nearby

Air Quality

  Air Quality AQ Index Pollutant
Not available.

Snow Depth

Station Depth Elevation

Earthquake Activity

City Distance Mag. Time & Date
Minimum magnitude displayed is 2.5.

Coastal Water Temperatures

Place Temperature

Nearby Weather Stations